Sherbro International Airport

Jump to: basic info | weather | comments

Related pages: nearby airports | nearby navaids | notams | map

Basic information (top)

Codes: BTE GFBN
Location: lon 7.532420, lat -12.518900, elev 14 ft / 4 m msl
Status: medium_airport
Scheduled airline service: yes
Links: Wikipedia Mobile

Weather (top)

Current conditions for Lungi International Airport 77nm (142km) NNW (rec'd 2014/04/16 01:00Z):

GFLL 160100Z 28006KT 9999 NSC 27/23 Q1012

Airport forecast for Lungi International Airport 77nm (142km) NNW (rec'd 2014/04/16 06:00Z):

TAF GFLL 160400Z 1606/1712 30007KT 9999 SCT013 
      BECMG 1607/1609 5000 BR SCT012 
      TEMPO 1610/1616 27005KT 9999 FEW014 SCT015 
      TEMPO 15171623 9999 FEW016

Latest comments (top)

No comments yet for Sherbro International Airport

More... (top)

See also NOTAMs and nearby airports and navaids, or visit the Sherbro International Airport page at the main OurAirports website..